Terminal Aerodrome Forecast
Issued by NWS

Home | Current Version | Previous Version | Graphics & Text | Print | Product List | Glossary On
Versions: 1 2 3 4 5 6 7 8 9 10 11 12 13 14 15
000
FTUS43 KGRB 191728
TAFATW
TAF
KATW 191728Z 1918/2018 26008KT P6SM SCT250
     FM200100 22003KT 6SM BR FEW250
     FM200900 23004KT 3SM BR FEW250
      TEMPO 2009/2011 1/2SM FG BKN003
     FM201300 21005KT P6SM FEW005
     FM201700 21008KT P6SM SCT250=

USA.gov is the U.S. government's official web portal to all federal, state and local government web resources and services.